sensor_id;sensor_type;location;lat;lon;timestamp;pressure;altitude;pressure_sealevel;temperature;humidity
43503;BME280;29098;48.184;16.298;2023-03-04T00:00:23;99658.13;;;1.82;74.84
43503;BME280;29098;48.184;16.298;2023-03-04T00:02:48;99657.41;;;1.80;74.75
43503;BME280;29098;48.184;16.298;2023-03-04T00:05:14;99649.63;;;1.80;75.18
43503;BME280;29098;48.184;16.298;2023-03-04T00:07:39;99651.97;;;1.83;74.98
43503;BME280;29098;48.184;16.298;2023-03-04T00:10:04;99652.53;;;1.63;75.86
43503;BME280;29098;48.184;16.298;2023-03-04T00:12:30;99652.69;;;1.73;75.71
43503;BME280;29098;48.184;16.298;2023-03-04T00:14:55;99649.25;;;1.73;75.57
43503;BME280;29098;48.184;16.298;2023-03-04T00:17:21;99641.69;;;1.70;76.00
43503;BME280;29098;48.184;16.298;2023-03-04T00:19:46;99643.34;;;1.71;76.05
43503;BME280;29098;48.184;16.298;2023-03-04T00:22:11;99640.50;;;1.62;76.28
43503;BME280;29098;48.184;16.298;2023-03-04T00:24:37;99637.66;;;1.43;77.36
43503;BME280;29098;48.184;16.298;2023-03-04T00:27:02;99644.59;;;1.54;77.04
43503;BME280;29098;48.184;16.298;2023-03-04T00:29:27;99642.00;;;1.54;77.13
43503;BME280;29098;48.184;16.298;2023-03-04T00:31:53;99642.09;;;1.41;77.76
43503;BME280;29098;48.184;16.298;2023-03-04T00:34:18;99639.25;;;1.32;78.28
43503;BME280;29098;48.184;16.298;2023-03-04T00:36:43;99648.75;;;1.45;77.96
43503;BME280;29098;48.184;16.298;2023-03-04T00:39:09;99641.16;;;1.42;77.89
43503;BME280;29098;48.184;16.298;2023-03-04T00:41:35;99639.06;;;1.35;78.41
43503;BME280;29098;48.184;16.298;2023-03-04T00:44:00;99632.16;;;1.34;78.44
43503;BME280;29098;48.184;16.298;2023-03-04T00:46:26;99629.63;;;1.46;77.90
43503;BME280;29098;48.184;16.298;2023-03-04T00:48:51;99628.28;;;1.29;78.83
43503;BME280;29098;48.184;16.298;2023-03-04T00:51:16;99626.28;;;1.32;78.88
43503;BME280;29098;48.184;16.298;2023-03-04T00:53:42;99627.13;;;1.33;78.68
43503;BME280;29098;48.184;16.298;2023-03-04T00:56:07;99624.47;;;1.21;79.33
43503;BME280;29098;48.184;16.298;2023-03-04T00:58:32;99623.31;;;1.26;79.16
43503;BME280;29098;48.184;16.298;2023-03-04T01:00:58;99620.97;;;1.34;78.74
43503;BME280;29098;48.184;16.298;2023-03-04T01:03:23;99617.06;;;1.28;78.72
43503;BME280;29098;48.184;16.298;2023-03-04T01:05:50;99612.53;;;1.19;79.42
43503;BME280;29098;48.184;16.298;2023-03-04T01:08:16;99608.53;;;1.26;78.74
43503;BME280;29098;48.184;16.298;2023-03-04T01:10:41;99605.25;;;1.24;79.08
43503;BME280;29098;48.184;16.298;2023-03-04T01:13:06;99602.63;;;1.13;79.52
43503;BME280;29098;48.184;16.298;2023-03-04T01:15:32;99594.09;;;1.11;79.59
43503;BME280;29098;48.184;16.298;2023-03-04T01:17:57;99595.91;;;1.10;79.87
43503;BME280;29098;48.184;16.298;2023-03-04T01:20:22;99594.59;;;1.04;80.01
43503;BME280;29098;48.184;16.298;2023-03-04T01:22:48;99594.34;;;1.07;79.89
43503;BME280;29098;48.184;16.298;2023-03-04T01:25:13;99593.06;;;1.13;79.56
43503;BME280;29098;48.184;16.298;2023-03-04T01:27:38;99596.25;;;1.05;79.67
43503;BME280;29098;48.184;16.298;2023-03-04T01:30:04;99591.16;;;1.15;79.25
43503;BME280;29098;48.184;16.298;2023-03-04T01:32:30;99587.94;;;0.89;80.48
43503;BME280;29098;48.184;16.298;2023-03-04T01:34:55;99586.06;;;1.02;79.98
43503;BME280;29098;48.184;16.298;2023-03-04T01:37:20;99577.69;;;0.99;79.96
43503;BME280;29098;48.184;16.298;2023-03-04T01:39:46;99579.06;;;0.91;80.36
43503;BME280;29098;48.184;16.298;2023-03-04T01:42:16;99577.56;;;1.00;79.77
43503;BME280;29098;48.184;16.298;2023-03-04T01:44:43;99579.22;;;0.90;80.16
43503;BME280;29098;48.184;16.298;2023-03-04T01:47:08;99572.22;;;0.79;80.75
43503;BME280;29098;48.184;16.298;2023-03-04T01:49:34;99575.66;;;0.91;80.47
43503;BME280;29098;48.184;16.298;2023-03-04T01:51:59;99567.19;;;0.89;80.59
43503;BME280;29098;48.184;16.298;2023-03-04T01:54:25;99568.94;;;0.88;80.45
43503;BME280;29098;48.184;16.298;2023-03-04T01:56:50;99572.38;;;1.00;80.21
43503;BME280;29098;48.184;16.298;2023-03-04T01:59:27;99563.88;;;0.98;80.08
43503;BME280;29098;48.184;16.298;2023-03-04T02:01:55;99564.00;;;0.97;80.05
43503;BME280;29098;48.184;16.298;2023-03-04T02:04:22;99557.72;;;0.88;80.71
43503;BME280;29098;48.184;16.298;2023-03-04T02:06:48;99545.06;;;0.83;80.73
43503;BME280;29098;48.184;16.298;2023-03-04T02:09:14;99544.25;;;0.82;80.66
43503;BME280;29098;48.184;16.298;2023-03-04T02:11:40;99545.47;;;0.90;80.51
43503;BME280;29098;48.184;16.298;2023-03-04T02:14:06;99543.31;;;0.84;80.37
43503;BME280;29098;48.184;16.298;2023-03-04T02:16:32;99542.38;;;0.85;80.47
43503;BME280;29098;48.184;16.298;2023-03-04T02:18:57;99540.94;;;0.80;80.90
43503;BME280;29098;48.184;16.298;2023-03-04T02:26:27;99537.03;;;0.75;81.04
43503;BME280;29098;48.184;16.298;2023-03-04T02:28:53;99526.06;;;0.71;81.46
43503;BME280;29098;48.184;16.298;2023-03-04T02:31:38;99527.03;;;0.81;80.85
43503;BME280;29098;48.184;16.298;2023-03-04T02:34:10;99523.69;;;0.68;81.42
43503;BME280;29098;48.184;16.298;2023-03-04T02:36:36;99522.50;;;0.72;81.16
43503;BME280;29098;48.184;16.298;2023-03-04T02:39:27;99521.19;;;0.66;81.76
43503;BME280;29098;48.184;16.298;2023-03-04T02:41:48;99519.44;;;0.67;81.71
43503;BME280;29098;48.184;16.298;2023-03-04T02:44:18;99511.16;;;0.62;81.61
43503;BME280;29098;48.184;16.298;2023-03-04T02:46:44;99506.47;;;0.67;81.62
43503;BME280;29098;48.184;16.298;2023-03-04T02:49:09;99505.38;;;0.58;81.97
43503;BME280;29098;48.184;16.298;2023-03-04T02:51:35;99506.56;;;0.65;81.75
43503;BME280;29098;48.184;16.298;2023-03-04T02:54:00;99498.09;;;0.63;81.56
43503;BME280;29098;48.184;16.298;2023-03-04T02:56:25;99496.81;;;0.69;81.33
43503;BME280;29098;48.184;16.298;2023-03-04T02:58:51;99487.72;;;0.63;81.56
43503;BME280;29098;48.184;16.298;2023-03-04T03:01:16;99484.84;;;0.55;81.89
43503;BME280;29098;48.184;16.298;2023-03-04T03:03:41;99484.22;;;0.40;82.31
43503;BME280;29098;48.184;16.298;2023-03-04T03:06:07;99481.41;;;0.43;82.47
43503;BME280;29098;48.184;16.298;2023-03-04T03:08:32;99477.03;;;0.44;82.37
43503;BME280;29098;48.184;16.298;2023-03-04T03:10:57;99476.22;;;0.43;82.41
43503;BME280;29098;48.184;16.298;2023-03-04T03:13:23;99473.28;;;0.48;82.19
43503;BME280;29098;48.184;16.298;2023-03-04T03:15:48;99471.47;;;0.37;82.87
43503;BME280;29098;48.184;16.298;2023-03-04T03:18:14;99473.47;;;0.33;83.15
43503;BME280;29098;48.184;16.298;2023-03-04T03:20:39;99461.13;;;0.48;82.47
43503;BME280;29098;48.184;16.298;2023-03-04T03:23:06;99460.41;;;0.46;82.58
43503;BME280;29098;48.184;16.298;2023-03-04T03:25:31;99462.06;;;0.47;82.41
43503;BME280;29098;48.184;16.298;2023-03-04T03:27:57;99458.63;;;0.35;83.00
43503;BME280;29098;48.184;16.298;2023-03-04T03:30:22;99452.13;;;0.30;83.14
43503;BME280;29098;48.184;16.298;2023-03-04T03:32:48;99452.72;;;0.33;83.37
43503;BME280;29098;48.184;16.298;2023-03-04T03:35:13;99443.91;;;0.36;83.41
43503;BME280;29098;48.184;16.298;2023-03-04T03:37:38;99446.34;;;0.37;83.39
43503;BME280;29098;48.184;16.298;2023-03-04T03:40:04;99436.47;;;0.43;83.13
43503;BME280;29098;48.184;16.298;2023-03-04T03:42:29;99436.56;;;0.41;83.14
43503;BME280;29098;48.184;16.298;2023-03-04T03:44:55;99434.25;;;0.49;83.06
43503;BME280;29098;48.184;16.298;2023-03-04T03:47:20;99432.13;;;0.43;83.32
43503;BME280;29098;48.184;16.298;2023-03-04T03:49:45;99428.25;;;0.49;83.39
43503;BME280;29098;48.184;16.298;2023-03-04T03:52:11;99427.03;;;0.42;83.88
43503;BME280;29098;48.184;16.298;2023-03-04T03:54:36;99425.53;;;0.50;84.29
43503;BME280;29098;48.184;16.298;2023-03-04T03:57:02;99420.47;;;0.49;83.51
43503;BME280;29098;48.184;16.298;2023-03-04T03:59:27;99405.38;;;0.54;83.49
43503;BME280;29098;48.184;16.298;2023-03-04T04:01:53;99400.88;;;0.45;84.28
43503;BME280;29098;48.184;16.298;2023-03-04T04:04:18;99397.13;;;0.60;83.47
43503;BME280;29098;48.184;16.298;2023-03-04T04:06:43;99399.13;;;0.57;83.92
43503;BME280;29098;48.184;16.298;2023-03-04T04:09:09;99396.66;;;0.55;84.02
43503;BME280;29098;48.184;16.298;2023-03-04T04:11:34;99397.50;;;0.67;84.38
43503;BME280;29098;48.184;16.298;2023-03-04T04:13:59;99390.28;;;0.59;84.88
43503;BME280;29098;48.184;16.298;2023-03-04T04:16:25;99393.13;;;0.56;85.31
43503;BME280;29098;48.184;16.298;2023-03-04T04:18:50;99388.88;;;0.66;86.67
43503;BME280;29098;48.184;16.298;2023-03-04T04:21:15;99382.75;;;0.79;87.75
43503;BME280;29098;48.184;16.298;2023-03-04T04:23:41;99391.72;;;0.98;86.80
43503;BME280;29098;48.184;16.298;2023-03-04T04:26:06;99382.38;;;0.95;90.75
43503;BME280;29098;48.184;16.298;2023-03-04T04:28:31;99384.28;;;0.93;88.81
43503;BME280;29098;48.184;16.298;2023-03-04T04:30:57;99383.34;;;0.82;89.21
43503;BME280;29098;48.184;16.298;2023-03-04T04:33:22;99380.38;;;0.99;91.69
43503;BME280;29098;48.184;16.298;2023-03-04T04:35:47;99378.34;;;1.25;91.42
43503;BME280;29098;48.184;16.298;2023-03-04T04:38:13;99375.53;;;1.17;90.71
43503;BME280;29098;48.184;16.298;2023-03-04T04:40:38;99361.16;;;1.13;91.26
43503;BME280;29098;48.184;16.298;2023-03-04T04:43:03;99367.25;;;1.12;91.33
43503;BME280;29098;48.184;16.298;2023-03-04T04:45:29;99374.31;;;1.32;91.21
43503;BME280;29098;48.184;16.298;2023-03-04T04:47:54;99376.34;;;1.29;91.24
43503;BME280;29098;48.184;16.298;2023-03-04T04:50:22;99376.97;;;1.21;92.12
43503;BME280;29098;48.184;16.298;2023-03-04T04:52:47;99368.38;;;1.53;96.33
43503;BME280;29098;48.184;16.298;2023-03-04T04:55:12;99366.75;;;1.41;93.68
43503;BME280;29098;48.184;16.298;2023-03-04T04:57:38;99367.16;;;1.57;95.20
43503;BME280;29098;48.184;16.298;2023-03-04T05:00:04;99368.28;;;1.55;93.05
43503;BME280;29098;48.184;16.298;2023-03-04T05:02:29;99358.00;;;1.53;92.79
43503;BME280;29098;48.184;16.298;2023-03-04T05:04:55;99354.16;;;1.69;94.69
43503;BME280;29098;48.184;16.298;2023-03-04T05:07:20;99361.91;;;1.80;96.58
43503;BME280;29098;48.184;16.298;2023-03-04T05:09:46;99349.34;;;1.85;95.00
43503;BME280;29098;48.184;16.298;2023-03-04T05:12:11;99336.44;;;1.95;95.00
43503;BME280;29098;48.184;16.298;2023-03-04T05:14:36;99341.13;;;2.23;97.17
43503;BME280;29098;48.184;16.298;2023-03-04T05:17:02;99335.03;;;2.33;96.26
43503;BME280;29098;48.184;16.298;2023-03-04T05:19:27;99344.66;;;2.43;97.21
43503;BME280;29098;48.184;16.298;2023-03-04T05:21:52;99335.44;;;2.39;96.87
43503;BME280;29098;48.184;16.298;2023-03-04T05:24:18;99353.16;;;2.66;97.48
43503;BME280;29098;48.184;16.298;2023-03-04T05:26:43;99349.59;;;2.77;96.71
43503;BME280;29098;48.184;16.298;2023-03-04T05:29:09;99351.78;;;2.72;95.89
43503;BME280;29098;48.184;16.298;2023-03-04T05:31:34;99356.88;;;2.73;96.47
43503;BME280;29098;48.184;16.298;2023-03-04T05:33:59;99344.47;;;2.97;95.49
43503;BME280;29098;48.184;16.298;2023-03-04T05:36:25;99343.66;;;3.06;95.50
43503;BME280;29098;48.184;16.298;2023-03-04T05:38:50;99342.09;;;3.25;94.83
43503;BME280;29098;48.184;16.298;2023-03-04T05:41:18;99347.03;;;3.38;95.48
43503;BME280;29098;48.184;16.298;2023-03-04T05:43:46;99354.72;;;3.39;95.28
43503;BME280;29098;48.184;16.298;2023-03-04T05:46:12;99354.16;;;3.46;94.71
43503;BME280;29098;48.184;16.298;2023-03-04T05:48:38;99353.91;;;3.78;94.26
43503;BME280;29098;48.184;16.298;2023-03-04T05:51:04;99350.47;;;3.97;92.89
43503;BME280;29098;48.184;16.298;2023-03-04T05:53:29;99362.81;;;4.15;92.48
43503;BME280;29098;48.184;16.298;2023-03-04T05:55:54;99366.78;;;4.29;91.18
43503;BME280;29098;48.184;16.298;2023-03-04T05:58:20;99354.66;;;4.38;90.96
43503;BME280;29098;48.184;16.298;2023-03-04T06:00:46;99357.94;;;4.50;90.36
43503;BME280;29098;48.184;16.298;2023-03-04T06:03:17;99361.06;;;4.53;89.76
43503;BME280;29098;48.184;16.298;2023-03-04T06:05:43;99363.13;;;4.60;89.18
43503;BME280;29098;48.184;16.298;2023-03-04T06:08:08;99365.72;;;4.70;88.66
43503;BME280;29098;48.184;16.298;2023-03-04T06:10:33;99372.16;;;4.75;88.31
43503;BME280;29098;48.184;16.298;2023-03-04T06:12:59;99369.69;;;4.74;88.01
43503;BME280;29098;48.184;16.298;2023-03-04T06:15:24;99373.53;;;4.70;88.54
43503;BME280;29098;48.184;16.298;2023-03-04T06:17:49;99372.00;;;4.77;88.02
43503;BME280;29098;48.184;16.298;2023-03-04T06:20:15;99373.22;;;4.83;87.88
43503;BME280;29098;48.184;16.298;2023-03-04T06:22:40;99373.75;;;4.86;87.18
43503;BME280;29098;48.184;16.298;2023-03-04T06:25:06;99380.06;;;4.93;86.80
43503;BME280;29098;48.184;16.298;2023-03-04T06:27:31;99377.53;;;5.02;86.69
43503;BME280;29098;48.184;16.298;2023-03-04T06:29:57;99375.94;;;5.19;85.78
43503;BME280;29098;48.184;16.298;2023-03-04T06:32:22;99381.63;;;5.14;85.46
43503;BME280;29098;48.184;16.298;2023-03-04T06:34:47;99382.28;;;5.16;85.53
43503;BME280;29098;48.184;16.298;2023-03-04T06:37:13;99384.59;;;5.19;85.03
43503;BME280;29098;48.184;16.298;2023-03-04T06:39:38;99386.25;;;5.20;85.22
43503;BME280;29098;48.184;16.298;2023-03-04T06:42:03;99386.41;;;5.19;84.97
43503;BME280;29098;48.184;16.298;2023-03-04T06:44:29;99385.97;;;5.24;84.49
43503;BME280;29098;48.184;16.298;2023-03-04T06:46:54;99374.84;;;5.21;84.89
43503;BME280;29098;48.184;16.298;2023-03-04T06:49:20;99382.84;;;5.38;83.97
43503;BME280;29098;48.184;16.298;2023-03-04T06:51:45;99385.47;;;5.38;83.92
43503;BME280;29098;48.184;16.298;2023-03-04T06:54:10;99380.63;;;5.43;83.77
43503;BME280;29098;48.184;16.298;2023-03-04T06:56:36;99382.19;;;5.54;83.51
43503;BME280;29098;48.184;16.298;2023-03-04T06:59:01;99385.44;;;5.66;82.08
43503;BME280;29098;48.184;16.298;2023-03-04T07:01:27;99380.69;;;5.70;81.93
43503;BME280;29098;48.184;16.298;2023-03-04T07:03:52;99369.06;;;5.64;81.94
43503;BME280;29098;48.184;16.298;2023-03-04T07:06:19;99385.13;;;5.69;81.44
43503;BME280;29098;48.184;16.298;2023-03-04T07:08:45;99363.31;;;5.79;81.01
43503;BME280;29098;48.184;16.298;2023-03-04T07:11:11;99364.50;;;5.84;80.69
43503;BME280;29098;48.184;16.298;2023-03-04T07:13:36;99372.56;;;5.91;79.90
43503;BME280;29098;48.184;16.298;2023-03-04T07:16:06;99364.22;;;5.87;80.13
43503;BME280;29098;48.184;16.298;2023-03-04T07:18:31;99370.09;;;5.89;79.91
43503;BME280;29098;48.184;16.298;2023-03-04T07:20:57;99375.53;;;5.96;79.29
43503;BME280;29098;48.184;16.298;2023-03-04T07:23:22;99372.06;;;6.06;78.91
43503;BME280;29098;48.184;16.298;2023-03-04T07:25:48;99365.25;;;6.13;78.48
43503;BME280;29098;48.184;16.298;2023-03-04T07:28:13;99371.53;;;6.20;77.97
43503;BME280;29098;48.184;16.298;2023-03-04T07:30:39;99372.94;;;6.14;78.02
43503;BME280;29098;48.184;16.298;2023-03-04T07:33:04;99378.16;;;6.33;77.49
43503;BME280;29098;48.184;16.298;2023-03-04T07:35:29;99365.56;;;6.36;77.63
43503;BME280;29098;48.184;16.298;2023-03-04T07:37:54;99370.38;;;6.49;76.29
43503;BME280;29098;48.184;16.298;2023-03-04T07:40:20;99374.50;;;6.52;75.92
43503;BME280;29098;48.184;16.298;2023-03-04T07:42:52;99368.47;;;6.51;76.69
43503;BME280;29098;48.184;16.298;2023-03-04T07:45:20;99371.13;;;6.60;76.42
43503;BME280;29098;48.184;16.298;2023-03-04T07:47:46;99370.47;;;6.66;75.93
43503;BME280;29098;48.184;16.298;2023-03-04T07:50:12;99373.47;;;6.71;75.40
43503;BME280;29098;48.184;16.298;2023-03-04T07:52:41;99382.97;;;6.72;75.48
43503;BME280;29098;48.184;16.298;2023-03-04T07:55:07;99378.22;;;6.76;74.80
43503;BME280;29098;48.184;16.298;2023-03-04T07:57:33;99397.09;;;6.79;74.80
43503;BME280;29098;48.184;16.298;2023-03-04T07:59:58;99374.91;;;6.65;74.58
43503;BME280;29098;48.184;16.298;2023-03-04T08:02:23;99374.31;;;6.71;75.00
43503;BME280;29098;48.184;16.298;2023-03-04T08:04:49;99388.00;;;6.92;74.27
43503;BME280;29098;48.184;16.298;2023-03-04T08:07:14;99373.25;;;6.91;74.06
43503;BME280;29098;48.184;16.298;2023-03-04T08:09:39;99382.94;;;6.98;73.57
43503;BME280;29098;48.184;16.298;2023-03-04T08:12:05;99383.41;;;6.94;73.28
43503;BME280;29098;48.184;16.298;2023-03-04T08:14:30;99394.44;;;7.06;73.18
43503;BME280;29098;48.184;16.298;2023-03-04T08:16:55;99393.81;;;7.12;73.33
43503;BME280;29098;48.184;16.298;2023-03-04T08:19:21;99394.16;;;7.17;72.29
43503;BME280;29098;48.184;16.298;2023-03-04T08:21:46;99381.84;;;7.18;71.62
43503;BME280;29098;48.184;16.298;2023-03-04T08:24:11;99393.72;;;7.30;71.63
43503;BME280;29098;48.184;16.298;2023-03-04T08:26:41;99382.59;;;7.36;71.00
43503;BME280;29098;48.184;16.298;2023-03-04T08:29:07;99393.22;;;7.35;70.99
43503;BME280;29098;48.184;16.298;2023-03-04T08:31:33;99394.75;;;7.46;70.57
43503;BME280;29098;48.184;16.298;2023-03-04T08:33:58;99392.91;;;7.46;69.15
43503;BME280;29098;48.184;16.298;2023-03-04T08:36:24;99394.59;;;7.47;69.84
43503;BME280;29098;48.184;16.298;2023-03-04T08:38:49;99389.66;;;7.61;68.20
43503;BME280;29098;48.184;16.298;2023-03-04T08:41:14;99387.53;;;7.56;67.96
43503;BME280;29098;48.184;16.298;2023-03-04T08:43:41;99390.16;;;7.64;67.32
43503;BME280;29098;48.184;16.298;2023-03-04T08:46:06;99398.53;;;7.60;67.76
43503;BME280;29098;48.184;16.298;2023-03-04T08:48:32;99401.19;;;7.76;67.96
43503;BME280;29098;48.184;16.298;2023-03-04T08:50:57;99385.28;;;7.78;66.83
43503;BME280;29098;48.184;16.298;2023-03-04T08:53:23;99389.03;;;7.75;66.78
43503;BME280;29098;48.184;16.298;2023-03-04T08:55:49;99379.38;;;7.84;65.98
43503;BME280;29098;48.184;16.298;2023-03-04T08:58:14;99394.31;;;8.00;64.89
43503;BME280;29098;48.184;16.298;2023-03-04T09:00:41;99389.25;;;7.99;64.54
43503;BME280;29098;48.184;16.298;2023-03-04T09:03:08;99392.16;;;8.12;63.60
43503;BME280;29098;48.184;16.298;2023-03-04T09:05:34;99371.84;;;8.14;61.66
43503;BME280;29098;48.184;16.298;2023-03-04T09:08:00;99385.28;;;8.03;62.18
43503;BME280;29098;48.184;16.298;2023-03-04T09:10:25;99391.53;;;8.02;62.79
43503;BME280;29098;48.184;16.298;2023-03-04T09:12:50;99384.31;;;8.04;62.50
43503;BME280;29098;48.184;16.298;2023-03-04T09:15:16;99354.44;;;7.97;61.97
43503;BME280;29098;48.184;16.298;2023-03-04T09:17:41;99376.75;;;8.09;62.28
43503;BME280;29098;48.184;16.298;2023-03-04T09:20:07;99376.25;;;8.14;60.77
43503;BME280;29098;48.184;16.298;2023-03-04T09:22:34;99358.22;;;8.02;59.48
43503;BME280;29098;48.184;16.298;2023-03-04T09:24:59;99375.78;;;8.10;58.03
43503;BME280;29098;48.184;16.298;2023-03-04T09:27:25;99367.38;;;8.23;56.87
43503;BME280;29098;48.184;16.298;2023-03-04T09:29:50;99366.88;;;8.28;56.69
43503;BME280;29098;48.184;16.298;2023-03-04T09:32:15;99383.97;;;8.40;55.38
43503;BME280;29098;48.184;16.298;2023-03-04T09:34:41;99367.69;;;8.45;54.71
43503;BME280;29098;48.184;16.298;2023-03-04T09:37:06;99373.44;;;8.48;54.01
43503;BME280;29098;48.184;16.298;2023-03-04T09:39:31;99354.06;;;8.49;53.42
43503;BME280;29098;48.184;16.298;2023-03-04T09:41:57;99358.16;;;8.60;53.31
43503;BME280;29098;48.184;16.298;2023-03-04T09:44:24;99342.22;;;8.70;53.05
43503;BME280;29098;48.184;16.298;2023-03-04T09:46:50;99343.34;;;8.76;52.70
43503;BME280;29098;48.184;16.298;2023-03-04T09:49:16;99342.34;;;8.77;52.27
43503;BME280;29098;48.184;16.298;2023-03-04T09:54:14;99349.88;;;8.88;50.09
43503;BME280;29098;48.184;16.298;2023-03-04T09:56:42;99342.06;;;9.03;49.77
43503;BME280;29098;48.184;16.298;2023-03-04T09:59:10;99346.13;;;9.14;48.74
43503;BME280;29098;48.184;16.298;2023-03-04T10:01:49;99335.81;;;9.13;48.82
43503;BME280;29098;48.184;16.298;2023-03-04T10:04:17;99320.03;;;9.04;48.29
43503;BME280;29098;48.184;16.298;2023-03-04T10:06:44;99339.72;;;9.17;48.14
43503;BME280;29098;48.184;16.298;2023-03-04T10:09:29;99346.44;;;9.20;48.21
43503;BME280;29098;48.184;16.298;2023-03-04T10:12:02;99335.34;;;9.32;47.62
43503;BME280;29098;48.184;16.298;2023-03-04T10:14:31;99337.44;;;9.37;47.31
43503;BME280;29098;48.184;16.298;2023-03-04T10:17:10;99345.44;;;9.52;47.83
43503;BME280;29098;48.184;16.298;2023-03-04T10:22:16;99341.84;;;9.45;45.83
43503;BME280;29098;48.184;16.298;2023-03-04T10:24:43;99333.81;;;9.38;45.90
43503;BME280;29098;48.184;16.298;2023-03-04T10:27:11;99337.59;;;9.44;45.52
43503;BME280;29098;48.184;16.298;2023-03-04T10:29:39;99352.66;;;9.50;45.49
43503;BME280;29098;48.184;16.298;2023-03-04T10:32:04;99321.16;;;9.65;44.66
43503;BME280;29098;48.184;16.298;2023-03-04T10:34:30;99344.22;;;9.63;44.39
43503;BME280;29098;48.184;16.298;2023-03-04T10:37:02;99321.50;;;9.85;43.99
43503;BME280;29098;48.184;16.298;2023-03-04T10:39:43;99305.59;;;9.79;43.29
43503;BME280;29098;48.184;16.298;2023-03-04T10:44:41;99316.63;;;9.97;42.44
43503;BME280;29098;48.184;16.298;2023-03-04T10:47:08;99311.34;;;10.12;42.88
43503;BME280;29098;48.184;16.298;2023-03-04T10:49:34;99298.59;;;10.39;43.08
43503;BME280;29098;48.184;16.298;2023-03-04T10:52:30;99323.88;;;10.79;42.74
43503;BME280;29098;48.184;16.298;2023-03-04T10:55:05;99307.25;;;10.48;42.76
43503;BME280;29098;48.184;16.298;2023-03-04T10:57:35;99304.78;;;10.77;42.30
43503;BME280;29098;48.184;16.298;2023-03-04T11:02:43;99288.97;;;10.77;42.31
43503;BME280;29098;48.184;16.298;2023-03-04T11:07:53;99290.00;;;11.34;41.64
43503;BME280;29098;48.184;16.298;2023-03-04T11:10:28;99282.25;;;11.76;40.79
43503;BME280;29098;48.184;16.298;2023-03-04T11:15:23;99269.44;;;11.51;39.50
43503;BME280;29098;48.184;16.298;2023-03-04T11:18:01;99285.38;;;11.87;39.46
43503;BME280;29098;48.184;16.298;2023-03-04T11:20:38;99281.94;;;12.15;39.32
43503;BME280;29098;48.184;16.298;2023-03-04T11:23:08;99274.16;;;12.42;38.69
43503;BME280;29098;48.184;16.298;2023-03-04T11:25:35;99272.28;;;12.78;37.43
43503;BME280;29098;48.184;16.298;2023-03-04T11:28:10;99281.22;;;12.70;37.72
43503;BME280;29098;48.184;16.298;2023-03-04T11:30:40;99280.59;;;12.68;37.36
43503;BME280;29098;48.184;16.298;2023-03-04T11:38:17;99270.28;;;12.93;37.34
43503;BME280;29098;48.184;16.298;2023-03-04T11:40:44;99257.66;;;12.82;36.69
43503;BME280;29098;48.184;16.298;2023-03-04T11:43:13;99245.53;;;13.14;35.81
43503;BME280;29098;48.184;16.298;2023-03-04T11:48:35;99241.50;;;13.73;35.36
43503;BME280;29098;48.184;16.298;2023-03-04T11:51:47;99257.81;;;13.69;34.67
43503;BME280;29098;48.184;16.298;2023-03-04T11:53:55;99248.03;;;13.50;34.73
43503;BME280;29098;48.184;16.298;2023-03-04T11:58:59;99232.91;;;13.43;35.27
43503;BME280;29098;48.184;16.298;2023-03-04T12:06:31;99226.75;;;14.17;33.42
43503;BME280;29098;48.184;16.298;2023-03-04T12:19:07;99212.50;;;14.64;33.21
43503;BME280;29098;48.184;16.298;2023-03-04T12:24:24;99196.28;;;14.40;33.15
43503;BME280;29098;48.184;16.298;2023-03-04T12:26:59;99193.63;;;14.40;32.88
43503;BME280;29098;48.184;16.298;2023-03-04T12:29:40;99198.94;;;14.40;32.57
43503;BME280;29098;48.184;16.298;2023-03-04T12:40:21;99175.63;;;15.71;32.10
43503;BME280;29098;48.184;16.298;2023-03-04T12:43:03;99184.16;;;15.73;31.10
43503;BME280;29098;48.184;16.298;2023-03-04T12:55:43;99174.59;;;16.47;30.58
43503;BME280;29098;48.184;16.298;2023-03-04T12:58:17;99162.38;;;16.57;30.08
43503;BME280;29098;48.184;16.298;2023-03-04T13:00:47;99145.97;;;16.11;31.09
43503;BME280;29098;48.184;16.298;2023-03-04T13:10:49;99159.94;;;16.56;30.89
43503;BME280;29098;48.184;16.298;2023-03-04T13:16:02;99149.91;;;16.39;31.02
43503;BME280;29098;48.184;16.298;2023-03-04T13:18:29;99135.47;;;16.47;30.51
43503;BME280;29098;48.184;16.298;2023-03-04T13:21:15;99139.75;;;17.45;29.70
43503;BME280;29098;48.184;16.298;2023-03-04T13:23:42;99135.22;;;17.22;29.01
43503;BME280;29098;48.184;16.298;2023-03-04T13:26:15;99147.13;;;16.34;29.25
43503;BME280;29098;48.184;16.298;2023-03-04T13:28:41;99141.63;;;16.90;29.54
43503;BME280;29098;48.184;16.298;2023-03-04T13:31:10;99123.31;;;17.24;28.98
43503;BME280;29098;48.184;16.298;2023-03-04T13:36:03;99138.75;;;16.49;29.63
43503;BME280;29098;48.184;16.298;2023-03-04T13:41:14;99129.53;;;17.06;28.85
43503;BME280;29098;48.184;16.298;2023-03-04T13:43:50;99142.38;;;17.09;29.28
43503;BME280;29098;48.184;16.298;2023-03-04T13:56:27;99132.16;;;16.21;31.32
43503;BME280;29098;48.184;16.298;2023-03-04T14:06:40;99132.06;;;17.13;29.79
43503;BME280;29098;48.184;16.298;2023-03-04T14:09:12;99127.88;;;16.93;30.39
43503;BME280;29098;48.184;16.298;2023-03-04T14:11:38;99113.81;;;17.52;29.81
43503;BME280;29098;48.184;16.298;2023-03-04T14:14:07;99122.06;;;16.42;30.74
43503;BME280;29098;48.184;16.298;2023-03-04T14:16:37;99116.56;;;17.34;29.46
43503;BME280;29098;48.184;16.298;2023-03-04T14:19:04;99124.78;;;17.68;28.68
43503;BME280;29098;48.184;16.298;2023-03-04T14:21:30;99139.56;;;16.92;28.47
43503;BME280;29098;48.184;16.298;2023-03-04T14:24:00;99110.84;;;16.52;28.97
43503;BME280;29098;48.184;16.298;2023-03-04T14:26:26;99123.50;;;16.26;30.05
43503;BME280;29098;48.184;16.298;2023-03-04T14:28:51;99104.75;;;17.53;29.02
43503;BME280;29098;48.184;16.298;2023-03-04T14:31:21;99111.38;;;17.39;29.02
43503;BME280;29098;48.184;16.298;2023-03-04T14:33:52;99083.13;;;17.26;28.84
43503;BME280;29098;48.184;16.298;2023-03-04T14:36:21;99100.72;;;17.15;28.39